57C

East Troy Municipal Airport

East Troy, Wisconsin, USA
METAR K57C 260535Z AUTO 00000KT 10SM CLR 02/M02 A2998 RMK AO2 T00151017
Observed Flight Rules
Apr-26 @ 05:35 UTC (25 minutes ago) Visual Flight Rules
Visibility Clouds
10 miles
  • Clear skies
Temperatures Readings
Current 2°C / 36°F
Dewpoint -2°C / 28°F
Humidity 75%
Altimeter 29.98" Hg
Pressure 1015 hPa
Elevation 262
METAR K57C 260535Z AUTO 00000KT 10SM CLR 02/M02 A2998 RMK AO2 T00151017
Observed Flight Rules
Apr-26 @ 05:35 UTC
(25 minutes ago)
VFR
Clouds
  • Clear skies
Temperature Dewpoint
2°C / 36°F -2°C / 28°F
Humidity Altimeter Pressure
75% 29.98" Hg 1015 hPa